sensor_id;sensor_type;location;lat;lon;timestamp;temperature;humidity
51486;DHT22;37565;51.352;6.412;2022-09-09T00:02:02;24.00;99.50
51486;DHT22;37565;51.352;6.412;2022-09-09T00:04:33;24.00;99.40
51486;DHT22;37565;51.352;6.412;2022-09-09T00:07:05;24.00;99.20
51486;DHT22;37565;51.352;6.412;2022-09-09T00:09:43;23.90;99.40
51486;DHT22;37565;51.352;6.412;2022-09-09T00:12:17;24.00;99.50
51486;DHT22;37565;51.352;6.412;2022-09-09T00:14:51;24.00;99.30
51486;DHT22;37565;51.352;6.412;2022-09-09T00:17:31;24.00;99.30
51486;DHT22;37565;51.352;6.412;2022-09-09T00:20:05;24.00;99.40
51486;DHT22;37565;51.352;6.412;2022-09-09T00:22:40;24.00;99.20
51486;DHT22;37565;51.352;6.412;2022-09-09T00:25:12;23.90;99.40
51486;DHT22;37565;51.352;6.412;2022-09-09T00:27:45;23.90;99.30
51486;DHT22;37565;51.352;6.412;2022-09-09T00:30:18;23.90;99.40
51486;DHT22;37565;51.352;6.412;2022-09-09T00:32:50;23.90;99.30
51486;DHT22;37565;51.352;6.412;2022-09-09T00:35:23;23.90;99.40
51486;DHT22;37565;51.352;6.412;2022-09-09T00:37:54;23.90;99.60
51486;DHT22;37565;51.352;6.412;2022-09-09T00:40:29;23.90;99.50
51486;DHT22;37565;51.352;6.412;2022-09-09T00:43:16;23.90;99.60
51486;DHT22;37565;51.352;6.412;2022-09-09T00:46:06;23.90;99.60
51486;DHT22;37565;51.352;6.412;2022-09-09T00:48:44;23.90;99.50
51486;DHT22;37565;51.352;6.412;2022-09-09T00:51:17;23.90;99.90
51486;DHT22;37565;51.352;6.412;2022-09-09T00:54:03;23.90;99.30
51486;DHT22;37565;51.352;6.412;2022-09-09T00:56:37;23.90;99.60
51486;DHT22;37565;51.352;6.412;2022-09-09T00:59:20;23.90;99.50
51486;DHT22;37565;51.352;6.412;2022-09-09T01:01:55;23.80;99.50
51486;DHT22;37565;51.352;6.412;2022-09-09T01:04:29;23.80;99.50
51486;DHT22;37565;51.352;6.412;2022-09-09T01:07:04;23.80;99.50
51486;DHT22;37565;51.352;6.412;2022-09-09T01:09:43;23.80;99.70
51486;DHT22;37565;51.352;6.412;2022-09-09T01:12:15;23.80;99.30
51486;DHT22;37565;51.352;6.412;2022-09-09T01:14:48;23.80;99.40
51486;DHT22;37565;51.352;6.412;2022-09-09T01:17:21;23.80;99.70
51486;DHT22;37565;51.352;6.412;2022-09-09T01:19:57;23.80;99.50
51486;DHT22;37565;51.352;6.412;2022-09-09T01:22:36;23.80;99.60
51486;DHT22;37565;51.352;6.412;2022-09-09T01:25:28;23.80;99.80
51486;DHT22;37565;51.352;6.412;2022-09-09T01:27:59;23.80;99.60
51486;DHT22;37565;51.352;6.412;2022-09-09T01:30:28;23.80;99.60
51486;DHT22;37565;51.352;6.412;2022-09-09T01:32:57;23.80;99.50
51486;DHT22;37565;51.352;6.412;2022-09-09T01:35:37;23.70;99.40
51486;DHT22;37565;51.352;6.412;2022-09-09T01:38:06;23.80;99.50
51486;DHT22;37565;51.352;6.412;2022-09-09T01:40:34;23.70;99.70
51486;DHT22;37565;51.352;6.412;2022-09-09T01:43:04;23.80;99.50
51486;DHT22;37565;51.352;6.412;2022-09-09T01:45:33;23.80;99.60
51486;DHT22;37565;51.352;6.412;2022-09-09T01:48:02;23.80;99.70
51486;DHT22;37565;51.352;6.412;2022-09-09T01:50:30;23.80;99.90
51486;DHT22;37565;51.352;6.412;2022-09-09T01:52:59;23.70;99.70
51486;DHT22;37565;51.352;6.412;2022-09-09T01:55:31;23.70;99.70
51486;DHT22;37565;51.352;6.412;2022-09-09T01:58:13;23.70;99.80
51486;DHT22;37565;51.352;6.412;2022-09-09T02:00:50;23.70;99.70
51486;DHT22;37565;51.352;6.412;2022-09-09T02:03:25;23.70;99.60
51486;DHT22;37565;51.352;6.412;2022-09-09T02:06:02;23.70;99.60
51486;DHT22;37565;51.352;6.412;2022-09-09T02:08:36;23.70;99.60
51486;DHT22;37565;51.352;6.412;2022-09-09T02:11:11;23.70;99.60
51486;DHT22;37565;51.352;6.412;2022-09-09T02:13:43;23.70;99.60
51486;DHT22;37565;51.352;6.412;2022-09-09T02:16:14;23.70;99.60
51486;DHT22;37565;51.352;6.412;2022-09-09T02:18:48;23.70;99.70
51486;DHT22;37565;51.352;6.412;2022-09-09T02:21:18;23.70;99.90
51486;DHT22;37565;51.352;6.412;2022-09-09T02:23:48;23.70;99.60
51486;DHT22;37565;51.352;6.412;2022-09-09T02:26:19;23.60;99.70
51486;DHT22;37565;51.352;6.412;2022-09-09T02:28:53;23.60;99.80
51486;DHT22;37565;51.352;6.412;2022-09-09T02:31:23;23.60;99.90
51486;DHT22;37565;51.352;6.412;2022-09-09T02:33:55;23.60;99.70
51486;DHT22;37565;51.352;6.412;2022-09-09T02:36:24;23.60;99.60
51486;DHT22;37565;51.352;6.412;2022-09-09T02:38:53;23.60;99.80
51486;DHT22;37565;51.352;6.412;2022-09-09T02:41:24;23.60;99.70
51486;DHT22;37565;51.352;6.412;2022-09-09T02:43:55;23.60;99.80
51486;DHT22;37565;51.352;6.412;2022-09-09T02:46:41;23.60;99.80
51486;DHT22;37565;51.352;6.412;2022-09-09T02:49:18;23.60;99.80
51486;DHT22;37565;51.352;6.412;2022-09-09T02:51:53;23.60;99.90
51486;DHT22;37565;51.352;6.412;2022-09-09T02:54:27;23.60;99.70
51486;DHT22;37565;51.352;6.412;2022-09-09T02:56:58;23.60;99.90
51486;DHT22;37565;51.352;6.412;2022-09-09T02:59:30;23.60;99.90
51486;DHT22;37565;51.352;6.412;2022-09-09T03:01:58;23.60;99.90
51486;DHT22;37565;51.352;6.412;2022-09-09T03:04:26;23.60;99.80
51486;DHT22;37565;51.352;6.412;2022-09-09T03:06:54;23.60;99.90
51486;DHT22;37565;51.352;6.412;2022-09-09T03:09:22;23.50;99.80
51486;DHT22;37565;51.352;6.412;2022-09-09T03:11:50;23.60;99.90
51486;DHT22;37565;51.352;6.412;2022-09-09T03:14:18;23.50;99.90
51486;DHT22;37565;51.352;6.412;2022-09-09T03:16:53;23.60;99.90
51486;DHT22;37565;51.352;6.412;2022-09-09T03:19:21;23.50;99.90
51486;DHT22;37565;51.352;6.412;2022-09-09T03:21:49;23.60;99.90
51486;DHT22;37565;51.352;6.412;2022-09-09T03:24:17;23.50;99.90
51486;DHT22;37565;51.352;6.412;2022-09-09T03:26:45;23.50;99.90
51486;DHT22;37565;51.352;6.412;2022-09-09T03:29:13;23.50;99.90
51486;DHT22;37565;51.352;6.412;2022-09-09T03:31:42;23.50;99.90
51486;DHT22;37565;51.352;6.412;2022-09-09T03:34:11;23.50;99.90
51486;DHT22;37565;51.352;6.412;2022-09-09T03:36:40;23.50;99.90
51486;DHT22;37565;51.352;6.412;2022-09-09T03:39:08;23.50;99.90
51486;DHT22;37565;51.352;6.412;2022-09-09T03:41:37;23.40;99.90
51486;DHT22;37565;51.352;6.412;2022-09-09T03:44:05;23.50;99.90
51486;DHT22;37565;51.352;6.412;2022-09-09T03:46:32;23.50;99.90
51486;DHT22;37565;51.352;6.412;2022-09-09T03:49:00;23.50;99.90
51486;DHT22;37565;51.352;6.412;2022-09-09T03:51:30;23.50;99.90
51486;DHT22;37565;51.352;6.412;2022-09-09T03:53:58;23.40;99.90
51486;DHT22;37565;51.352;6.412;2022-09-09T03:56:26;23.50;99.90
51486;DHT22;37565;51.352;6.412;2022-09-09T03:58:54;23.40;99.90
51486;DHT22;37565;51.352;6.412;2022-09-09T04:01:22;23.40;99.90
51486;DHT22;37565;51.352;6.412;2022-09-09T04:03:50;23.40;99.90
51486;DHT22;37565;51.352;6.412;2022-09-09T04:06:19;23.40;99.90
51486;DHT22;37565;51.352;6.412;2022-09-09T04:08:49;23.40;99.90
51486;DHT22;37565;51.352;6.412;2022-09-09T04:11:19;23.40;99.90
51486;DHT22;37565;51.352;6.412;2022-09-09T04:13:47;23.40;99.90
51486;DHT22;37565;51.352;6.412;2022-09-09T04:16:15;23.40;99.90
51486;DHT22;37565;51.352;6.412;2022-09-09T04:18:43;23.40;99.90
51486;DHT22;37565;51.352;6.412;2022-09-09T04:21:12;23.40;99.90
51486;DHT22;37565;51.352;6.412;2022-09-09T04:23:40;23.40;99.90
51486;DHT22;37565;51.352;6.412;2022-09-09T04:26:09;23.40;99.90
51486;DHT22;37565;51.352;6.412;2022-09-09T04:28:37;23.40;99.90
51486;DHT22;37565;51.352;6.412;2022-09-09T04:31:06;23.40;99.90
51486;DHT22;37565;51.352;6.412;2022-09-09T04:33:35;23.40;99.90
51486;DHT22;37565;51.352;6.412;2022-09-09T04:36:06;23.40;99.90
51486;DHT22;37565;51.352;6.412;2022-09-09T04:38:34;23.40;99.90
51486;DHT22;37565;51.352;6.412;2022-09-09T04:41:02;23.40;99.90
51486;DHT22;37565;51.352;6.412;2022-09-09T04:43:32;23.40;99.90
51486;DHT22;37565;51.352;6.412;2022-09-09T04:46:00;23.40;99.90
51486;DHT22;37565;51.352;6.412;2022-09-09T04:48:28;23.40;99.90
51486;DHT22;37565;51.352;6.412;2022-09-09T04:50:57;23.30;99.90
51486;DHT22;37565;51.352;6.412;2022-09-09T04:53:25;23.30;99.90
51486;DHT22;37565;51.352;6.412;2022-09-09T04:56:01;23.30;99.90
51486;DHT22;37565;51.352;6.412;2022-09-09T04:58:29;23.30;99.90
51486;DHT22;37565;51.352;6.412;2022-09-09T05:01:05;23.30;99.90
51486;DHT22;37565;51.352;6.412;2022-09-09T05:03:33;23.30;99.90
51486;DHT22;37565;51.352;6.412;2022-09-09T05:06:09;23.30;99.90
51486;DHT22;37565;51.352;6.412;2022-09-09T05:08:38;23.30;99.90
51486;DHT22;37565;51.352;6.412;2022-09-09T05:11:14;23.30;99.90
51486;DHT22;37565;51.352;6.412;2022-09-09T05:13:43;23.30;99.90
51486;DHT22;37565;51.352;6.412;2022-09-09T05:16:12;23.30;99.90
51486;DHT22;37565;51.352;6.412;2022-09-09T05:18:41;23.20;99.90
51486;DHT22;37565;51.352;6.412;2022-09-09T05:21:10;23.20;99.90
51486;DHT22;37565;51.352;6.412;2022-09-09T05:23:38;23.20;99.90
51486;DHT22;37565;51.352;6.412;2022-09-09T05:26:09;23.20;99.90
51486;DHT22;37565;51.352;6.412;2022-09-09T05:28:43;23.20;99.90
51486;DHT22;37565;51.352;6.412;2022-09-09T05:31:15;23.20;99.90
51486;DHT22;37565;51.352;6.412;2022-09-09T05:33:44;23.20;99.90
51486;DHT22;37565;51.352;6.412;2022-09-09T05:36:13;23.10;99.90
51486;DHT22;37565;51.352;6.412;2022-09-09T05:38:42;23.10;99.90
51486;DHT22;37565;51.352;6.412;2022-09-09T05:41:11;23.10;99.90
51486;DHT22;37565;51.352;6.412;2022-09-09T05:43:42;23.10;99.90
51486;DHT22;37565;51.352;6.412;2022-09-09T05:46:14;23.10;99.90
51486;DHT22;37565;51.352;6.412;2022-09-09T05:48:43;23.10;99.90
51486;DHT22;37565;51.352;6.412;2022-09-09T05:51:14;23.10;99.80
51486;DHT22;37565;51.352;6.412;2022-09-09T05:53:44;23.10;99.70
51486;DHT22;37565;51.352;6.412;2022-09-09T05:56:15;23.10;99.70
51486;DHT22;37565;51.352;6.412;2022-09-09T05:58:44;23.10;99.60
51486;DHT22;37565;51.352;6.412;2022-09-09T06:01:16;23.00;99.80
51486;DHT22;37565;51.352;6.412;2022-09-09T06:03:46;23.10;99.40
51486;DHT22;37565;51.352;6.412;2022-09-09T06:06:16;23.00;99.30
51486;DHT22;37565;51.352;6.412;2022-09-09T06:08:45;23.10;99.30
51486;DHT22;37565;51.352;6.412;2022-09-09T06:11:14;23.00;99.10
51486;DHT22;37565;51.352;6.412;2022-09-09T06:13:43;23.10;99.20
51486;DHT22;37565;51.352;6.412;2022-09-09T06:16:15;23.00;99.10
51486;DHT22;37565;51.352;6.412;2022-09-09T06:18:43;23.00;99.40
51486;DHT22;37565;51.352;6.412;2022-09-09T06:21:16;23.00;99.10
51486;DHT22;37565;51.352;6.412;2022-09-09T06:23:45;23.00;99.00
51486;DHT22;37565;51.352;6.412;2022-09-09T06:26:17;23.00;99.00
51486;DHT22;37565;51.352;6.412;2022-09-09T06:28:46;23.00;98.90
51486;DHT22;37565;51.352;6.412;2022-09-09T06:31:17;23.00;99.00
51486;DHT22;37565;51.352;6.412;2022-09-09T06:33:54;23.00;98.90
51486;DHT22;37565;51.352;6.412;2022-09-09T06:36:23;23.00;98.90
51486;DHT22;37565;51.352;6.412;2022-09-09T06:38:52;23.00;99.00
51486;DHT22;37565;51.352;6.412;2022-09-09T06:41:22;23.00;98.90
51486;DHT22;37565;51.352;6.412;2022-09-09T06:43:50;23.00;98.90
51486;DHT22;37565;51.352;6.412;2022-09-09T06:46:20;22.90;98.90
51486;DHT22;37565;51.352;6.412;2022-09-09T06:48:49;22.90;98.90
51486;DHT22;37565;51.352;6.412;2022-09-09T06:51:19;22.90;98.90
51486;DHT22;37565;51.352;6.412;2022-09-09T06:53:50;22.90;98.90
51486;DHT22;37565;51.352;6.412;2022-09-09T06:56:22;22.90;99.00
51486;DHT22;37565;51.352;6.412;2022-09-09T06:58:52;22.90;98.90
51486;DHT22;37565;51.352;6.412;2022-09-09T07:01:23;22.90;99.00
51486;DHT22;37565;51.352;6.412;2022-09-09T07:03:52;22.90;99.00
51486;DHT22;37565;51.352;6.412;2022-09-09T07:06:23;22.90;99.00
51486;DHT22;37565;51.352;6.412;2022-09-09T07:08:52;22.90;98.90
51486;DHT22;37565;51.352;6.412;2022-09-09T07:11:24;22.90;98.90
51486;DHT22;37565;51.352;6.412;2022-09-09T07:13:54;22.90;98.90
51486;DHT22;37565;51.352;6.412;2022-09-09T07:16:23;23.00;98.90
51486;DHT22;37565;51.352;6.412;2022-09-09T07:18:52;23.00;98.90
51486;DHT22;37565;51.352;6.412;2022-09-09T07:21:25;23.00;98.90
51486;DHT22;37565;51.352;6.412;2022-09-09T07:23:54;23.00;98.90
51486;DHT22;37565;51.352;6.412;2022-09-09T07:26:24;23.00;98.80
51486;DHT22;37565;51.352;6.412;2022-09-09T07:28:53;23.00;98.70
51486;DHT22;37565;51.352;6.412;2022-09-09T07:31:25;23.10;98.80
51486;DHT22;37565;51.352;6.412;2022-09-09T07:33:53;23.00;99.00
51486;DHT22;37565;51.352;6.412;2022-09-09T07:36:23;23.00;98.60
51486;DHT22;37565;51.352;6.412;2022-09-09T07:39:01;23.00;99.00
51486;DHT22;37565;51.352;6.412;2022-09-09T07:41:31;23.00;98.60
51486;DHT22;37565;51.352;6.412;2022-09-09T07:44:04;23.00;98.60
51486;DHT22;37565;51.352;6.412;2022-09-09T07:46:35;23.00;98.60
51486;DHT22;37565;51.352;6.412;2022-09-09T07:49:03;23.00;98.60
51486;DHT22;37565;51.352;6.412;2022-09-09T07:51:33;23.00;98.50
51486;DHT22;37565;51.352;6.412;2022-09-09T07:54:03;23.00;98.40
51486;DHT22;37565;51.352;6.412;2022-09-09T07:56:32;23.00;98.90
51486;DHT22;37565;51.352;6.412;2022-09-09T07:59:00;22.90;98.10
51486;DHT22;37565;51.352;6.412;2022-09-09T08:01:30;22.90;98.10
51486;DHT22;37565;51.352;6.412;2022-09-09T08:04:02;22.80;98.10
51486;DHT22;37565;51.352;6.412;2022-09-09T08:06:32;22.80;97.90
51486;DHT22;37565;51.352;6.412;2022-09-09T08:09:01;22.80;97.80
51486;DHT22;37565;51.352;6.412;2022-09-09T08:11:29;22.90;97.60
51486;DHT22;37565;51.352;6.412;2022-09-09T08:14:05;22.80;97.40
51486;DHT22;37565;51.352;6.412;2022-09-09T08:16:36;22.80;97.80
51486;DHT22;37565;51.352;6.412;2022-09-09T08:19:06;22.80;97.90
51486;DHT22;37565;51.352;6.412;2022-09-09T08:21:36;22.90;97.90
51486;DHT22;37565;51.352;6.412;2022-09-09T08:24:06;22.90;97.90
51486;DHT22;37565;51.352;6.412;2022-09-09T08:26:36;22.90;97.70
51486;DHT22;37565;51.352;6.412;2022-09-09T08:29:06;23.00;97.60
51486;DHT22;37565;51.352;6.412;2022-09-09T08:31:36;23.00;97.60
51486;DHT22;37565;51.352;6.412;2022-09-09T08:34:07;23.00;97.50
51486;DHT22;37565;51.352;6.412;2022-09-09T08:36:37;23.00;97.60
51486;DHT22;37565;51.352;6.412;2022-09-09T08:39:06;23.00;97.70
51486;DHT22;37565;51.352;6.412;2022-09-09T08:41:43;23.00;97.70
51486;DHT22;37565;51.352;6.412;2022-09-09T08:44:22;23.00;97.60
51486;DHT22;37565;51.352;6.412;2022-09-09T08:47:01;23.00;97.60
51486;DHT22;37565;51.352;6.412;2022-09-09T08:49:54;23.00;97.60
51486;DHT22;37565;51.352;6.412;2022-09-09T08:52:28;23.10;97.70
51486;DHT22;37565;51.352;6.412;2022-09-09T08:55:03;23.00;97.70
51486;DHT22;37565;51.352;6.412;2022-09-09T08:57:32;23.00;97.80
51486;DHT22;37565;51.352;6.412;2022-09-09T09:00:02;23.00;97.90
51486;DHT22;37565;51.352;6.412;2022-09-09T09:02:36;23.00;98.20
51486;DHT22;37565;51.352;6.412;2022-09-09T09:05:17;23.10;98.00
51486;DHT22;37565;51.352;6.412;2022-09-09T09:07:58;23.10;98.00
51486;DHT22;37565;51.352;6.412;2022-09-09T09:10:38;23.10;98.10
51486;DHT22;37565;51.352;6.412;2022-09-09T09:13:14;23.20;98.20
51486;DHT22;37565;51.352;6.412;2022-09-09T09:15:44;23.30;98.20
51486;DHT22;37565;51.352;6.412;2022-09-09T09:18:17;23.40;98.00
51486;DHT22;37565;51.352;6.412;2022-09-09T09:20:54;23.40;97.90
51486;DHT22;37565;51.352;6.412;2022-09-09T09:23:26;23.60;97.60
51486;DHT22;37565;51.352;6.412;2022-09-09T09:26:00;23.60;97.50
51486;DHT22;37565;51.352;6.412;2022-09-09T09:28:30;23.50;96.60
51486;DHT22;37565;51.352;6.412;2022-09-09T09:31:03;23.40;96.20
51486;DHT22;37565;51.352;6.412;2022-09-09T09:33:34;23.40;96.80
51486;DHT22;37565;51.352;6.412;2022-09-09T09:36:04;23.40;96.90
51486;DHT22;37565;51.352;6.412;2022-09-09T09:38:35;23.40;96.90
51486;DHT22;37565;51.352;6.412;2022-09-09T09:41:34;23.60;96.80
51486;DHT22;37565;51.352;6.412;2022-09-09T09:44:03;23.40;96.60
51486;DHT22;37565;51.352;6.412;2022-09-09T09:46:32;23.40;96.70
51486;DHT22;37565;51.352;6.412;2022-09-09T09:49:02;23.40;96.30
51486;DHT22;37565;51.352;6.412;2022-09-09T09:51:33;23.40;96.40
51486;DHT22;37565;51.352;6.412;2022-09-09T09:54:08;23.40;96.30
51486;DHT22;37565;51.352;6.412;2022-09-09T09:56:40;23.30;96.40
51486;DHT22;37565;51.352;6.412;2022-09-09T09:59:20;23.30;96.30
51486;DHT22;37565;51.352;6.412;2022-09-09T10:02:16;23.30;96.20
51486;DHT22;37565;51.352;6.412;2022-09-09T10:04:45;23.30;96.20
51486;DHT22;37565;51.352;6.412;2022-09-09T10:07:18;23.30;96.50
51486;DHT22;37565;51.352;6.412;2022-09-09T10:09:50;23.30;96.20
51486;DHT22;37565;51.352;6.412;2022-09-09T10:12:29;23.30;96.10
51486;DHT22;37565;51.352;6.412;2022-09-09T10:15:04;23.30;96.40
51486;DHT22;37565;51.352;6.412;2022-09-09T10:17:40;23.30;96.20
51486;DHT22;37565;51.352;6.412;2022-09-09T10:20:21;23.30;96.60
51486;DHT22;37565;51.352;6.412;2022-09-09T10:23:02;23.40;96.30
51486;DHT22;37565;51.352;6.412;2022-09-09T10:25:49;23.40;95.80
51486;DHT22;37565;51.352;6.412;2022-09-09T10:28:34;23.40;96.10
51486;DHT22;37565;51.352;6.412;2022-09-09T10:31:14;23.50;96.10
51486;DHT22;37565;51.352;6.412;2022-09-09T10:33:50;23.50;96.00
51486;DHT22;37565;51.352;6.412;2022-09-09T10:36:21;23.60;96.10
51486;DHT22;37565;51.352;6.412;2022-09-09T10:38:54;23.60;96.00
51486;DHT22;37565;51.352;6.412;2022-09-09T10:41:35;23.60;95.60
51486;DHT22;37565;51.352;6.412;2022-09-09T10:44:20;23.60;95.40
51486;DHT22;37565;51.352;6.412;2022-09-09T10:47:11;23.60;95.30
51486;DHT22;37565;51.352;6.412;2022-09-09T10:49:57;23.60;95.40
51486;DHT22;37565;51.352;6.412;2022-09-09T10:52:32;23.60;95.40
51486;DHT22;37565;51.352;6.412;2022-09-09T10:55:10;23.50;95.40
51486;DHT22;37565;51.352;6.412;2022-09-09T10:57:44;23.50;95.40
51486;DHT22;37565;51.352;6.412;2022-09-09T11:00:18;23.60;95.40
51486;DHT22;37565;51.352;6.412;2022-09-09T11:02:50;23.60;95.50
51486;DHT22;37565;51.352;6.412;2022-09-09T11:05:23;23.60;95.30
51486;DHT22;37565;51.352;6.412;2022-09-09T11:07:55;23.60;95.30
51486;DHT22;37565;51.352;6.412;2022-09-09T11:10:32;23.60;95.70
51486;DHT22;37565;51.352;6.412;2022-09-09T11:13:05;23.60;95.40
51486;DHT22;37565;51.352;6.412;2022-09-09T11:15:38;23.60;95.80
51486;DHT22;37565;51.352;6.412;2022-09-09T11:18:11;23.60;95.50
51486;DHT22;37565;51.352;6.412;2022-09-09T11:20:41;23.60;95.50
51486;DHT22;37565;51.352;6.412;2022-09-09T11:23:15;23.60;95.50
51486;DHT22;37565;51.352;6.412;2022-09-09T11:25:49;23.60;95.40
51486;DHT22;37565;51.352;6.412;2022-09-09T11:28:32;23.60;95.40
51486;DHT22;37565;51.352;6.412;2022-09-09T11:31:15;23.60;95.30
51486;DHT22;37565;51.352;6.412;2022-09-09T11:33:58;23.70;95.30
51486;DHT22;37565;51.352;6.412;2022-09-09T11:36:43;23.70;95.20
51486;DHT22;37565;51.352;6.412;2022-09-09T11:39:44;23.70;95.20
51486;DHT22;37565;51.352;6.412;2022-09-09T11:42:21;23.70;95.10
51486;DHT22;37565;51.352;6.412;2022-09-09T11:44:50;23.70;95.20
51486;DHT22;37565;51.352;6.412;2022-09-09T11:47:23;23.70;95.10
51486;DHT22;37565;51.352;6.412;2022-09-09T11:50:07;23.70;95.00
51486;DHT22;37565;51.352;6.412;2022-09-09T11:52:38;23.70;95.00
51486;DHT22;37565;51.352;6.412;2022-09-09T11:55:09;23.70;94.90
51486;DHT22;37565;51.352;6.412;2022-09-09T11:57:40;23.70;94.90
51486;DHT22;37565;51.352;6.412;2022-09-09T12:00:33;23.70;94.80
51486;DHT22;37565;51.352;6.412;2022-09-09T12:03:01;23.70;94.80
51486;DHT22;37565;51.352;6.412;2022-09-09T12:05:38;23.70;94.80
51486;DHT22;37565;51.352;6.412;2022-09-09T12:08:09;23.70;94.80
51486;DHT22;37565;51.352;6.412;2022-09-09T12:10:39;23.70;94.70
51486;DHT22;37565;51.352;6.412;2022-09-09T12:13:17;23.70;94.80
51486;DHT22;37565;51.352;6.412;2022-09-09T12:15:49;23.70;94.80
51486;DHT22;37565;51.352;6.412;2022-09-09T12:18:23;23.70;95.00
51486;DHT22;37565;51.352;6.412;2022-09-09T12:20:57;23.70;95.10
51486;DHT22;37565;51.352;6.412;2022-09-09T12:23:40;23.70;95.30
51486;DHT22;37565;51.352;6.412;2022-09-09T12:26:29;23.70;95.40
51486;DHT22;37565;51.352;6.412;2022-09-09T12:29:08;23.80;95.70
51486;DHT22;37565;51.352;6.412;2022-09-09T12:31:46;23.80;96.10
51486;DHT22;37565;51.352;6.412;2022-09-09T12:34:17;23.80;96.00
51486;DHT22;37565;51.352;6.412;2022-09-09T12:36:51;23.80;96.10
51486;DHT22;37565;51.352;6.412;2022-09-09T12:39:28;23.80;96.30
51486;DHT22;37565;51.352;6.412;2022-09-09T12:41:56;23.80;96.40
51486;DHT22;37565;51.352;6.412;2022-09-09T12:44:26;23.80;96.50
51486;DHT22;37565;51.352;6.412;2022-09-09T12:46:57;23.80;96.70
51486;DHT22;37565;51.352;6.412;2022-09-09T12:49:30;23.80;96.60
51486;DHT22;37565;51.352;6.412;2022-09-09T12:52:02;23.80;96.70
51486;DHT22;37565;51.352;6.412;2022-09-09T12:54:33;23.80;96.70
51486;DHT22;37565;51.352;6.412;2022-09-09T12:57:02;23.80;96.80
51486;DHT22;37565;51.352;6.412;2022-09-09T12:59:38;23.80;96.70
51486;DHT22;37565;51.352;6.412;2022-09-09T13:02:18;23.80;96.70
51486;DHT22;37565;51.352;6.412;2022-09-09T13:04:46;23.80;96.70
51486;DHT22;37565;51.352;6.412;2022-09-09T13:07:17;23.80;96.70
51486;DHT22;37565;51.352;6.412;2022-09-09T13:09:47;23.80;96.60
51486;DHT22;37565;51.352;6.412;2022-09-09T13:12:18;23.80;96.70
51486;DHT22;37565;51.352;6.412;2022-09-09T13:14:50;23.80;96.80
51486;DHT22;37565;51.352;6.412;2022-09-09T13:17:21;23.80;96.80
51486;DHT22;37565;51.352;6.412;2022-09-09T13:19:50;23.90;96.80
51486;DHT22;37565;51.352;6.412;2022-09-09T13:22:22;23.80;96.80
51486;DHT22;37565;51.352;6.412;2022-09-09T13:25:00;23.80;96.70
51486;DHT22;37565;51.352;6.412;2022-09-09T13:27:30;23.90;96.70
51486;DHT22;37565;51.352;6.412;2022-09-09T13:30:00;23.80;96.60
51486;DHT22;37565;51.352;6.412;2022-09-09T13:32:29;23.80;96.50
51486;DHT22;37565;51.352;6.412;2022-09-09T13:34:59;23.80;96.40
51486;DHT22;37565;51.352;6.412;2022-09-09T13:37:32;23.80;96.40
51486;DHT22;37565;51.352;6.412;2022-09-09T13:40:02;23.80;96.30
51486;DHT22;37565;51.352;6.412;2022-09-09T13:42:35;23.80;96.60
51486;DHT22;37565;51.352;6.412;2022-09-09T13:45:16;23.80;96.20
51486;DHT22;37565;51.352;6.412;2022-09-09T13:47:47;23.80;96.10
51486;DHT22;37565;51.352;6.412;2022-09-09T13:50:19;23.80;96.10
51486;DHT22;37565;51.352;6.412;2022-09-09T13:52:49;23.80;96.00
51486;DHT22;37565;51.352;6.412;2022-09-09T13:55:18;23.80;96.00
51486;DHT22;37565;51.352;6.412;2022-09-09T13:57:51;23.80;96.10
51486;DHT22;37565;51.352;6.412;2022-09-09T14:00:22;23.80;96.10
51486;DHT22;37565;51.352;6.412;2022-09-09T14:02:51;23.70;96.10
51486;DHT22;37565;51.352;6.412;2022-09-09T14:05:19;23.80;96.20
51486;DHT22;37565;51.352;6.412;2022-09-09T14:07:49;23.80;96.30
51486;DHT22;37565;51.352;6.412;2022-09-09T14:10:19;23.70;96.40
51486;DHT22;37565;51.352;6.412;2022-09-09T14:12:47;23.70;96.50
51486;DHT22;37565;51.352;6.412;2022-09-09T14:15:15;23.70;96.40
51486;DHT22;37565;51.352;6.412;2022-09-09T14:17:45;23.60;96.50
51486;DHT22;37565;51.352;6.412;2022-09-09T14:20:13;23.70;96.50
51486;DHT22;37565;51.352;6.412;2022-09-09T14:22:42;23.70;96.40
51486;DHT22;37565;51.352;6.412;2022-09-09T14:25:10;23.60;96.40
51486;DHT22;37565;51.352;6.412;2022-09-09T14:27:40;23.60;96.40
51486;DHT22;37565;51.352;6.412;2022-09-09T14:30:09;23.60;96.40
51486;DHT22;37565;51.352;6.412;2022-09-09T14:32:38;23.60;96.50
51486;DHT22;37565;51.352;6.412;2022-09-09T14:35:08;23.60;96.50
51486;DHT22;37565;51.352;6.412;2022-09-09T14:37:36;23.60;96.60
51486;DHT22;37565;51.352;6.412;2022-09-09T14:40:06;23.60;97.00
51486;DHT22;37565;51.352;6.412;2022-09-09T14:42:35;23.60;96.70
51486;DHT22;37565;51.352;6.412;2022-09-09T14:45:03;23.60;96.70
51486;DHT22;37565;51.352;6.412;2022-09-09T14:47:31;23.60;96.80
51486;DHT22;37565;51.352;6.412;2022-09-09T14:49:59;23.70;96.80
51486;DHT22;37565;51.352;6.412;2022-09-09T14:52:29;23.70;96.90
51486;DHT22;37565;51.352;6.412;2022-09-09T14:54:57;23.70;96.90
51486;DHT22;37565;51.352;6.412;2022-09-09T14:57:25;23.80;97.00
51486;DHT22;37565;51.352;6.412;2022-09-09T14:59:53;23.80;97.00
51486;DHT22;37565;51.352;6.412;2022-09-09T15:02:21;23.80;97.00
51486;DHT22;37565;51.352;6.412;2022-09-09T15:04:49;23.80;97.00
51486;DHT22;37565;51.352;6.412;2022-09-09T15:07:17;23.80;97.00
51486;DHT22;37565;51.352;6.412;2022-09-09T15:09:47;23.80;97.20
51486;DHT22;37565;51.352;6.412;2022-09-09T15:12:15;23.80;97.20
51486;DHT22;37565;51.352;6.412;2022-09-09T15:14:45;23.80;97.20
51486;DHT22;37565;51.352;6.412;2022-09-09T15:17:14;23.90;97.20
51486;DHT22;37565;51.352;6.412;2022-09-09T15:19:42;23.90;97.40
51486;DHT22;37565;51.352;6.412;2022-09-09T15:22:09;23.90;97.40
51486;DHT22;37565;51.352;6.412;2022-09-09T15:24:37;24.00;97.40
51486;DHT22;37565;51.352;6.412;2022-09-09T15:27:07;24.00;97.50
51486;DHT22;37565;51.352;6.412;2022-09-09T15:29:35;24.00;97.50
51486;DHT22;37565;51.352;6.412;2022-09-09T15:32:05;23.90;97.60
51486;DHT22;37565;51.352;6.412;2022-09-09T15:34:32;24.00;97.70
51486;DHT22;37565;51.352;6.412;2022-09-09T15:37:00;23.90;97.70
51486;DHT22;37565;51.352;6.412;2022-09-09T15:39:28;24.00;97.70
51486;DHT22;37565;51.352;6.412;2022-09-09T15:41:59;23.90;97.80
51486;DHT22;37565;51.352;6.412;2022-09-09T15:44:29;24.00;97.70
51486;DHT22;37565;51.352;6.412;2022-09-09T15:46:57;24.00;97.80
51486;DHT22;37565;51.352;6.412;2022-09-09T15:49:26;23.90;97.80
51486;DHT22;37565;51.352;6.412;2022-09-09T15:51:55;23.90;97.70
51486;DHT22;37565;51.352;6.412;2022-09-09T15:54:25;24.00;97.70
51486;DHT22;37565;51.352;6.412;2022-09-09T15:56:54;24.00;97.90
51486;DHT22;37565;51.352;6.412;2022-09-09T15:59:23;24.00;98.40
51486;DHT22;37565;51.352;6.412;2022-09-09T16:01:53;24.00;98.10